Time;durP1;ratioP1;P1;durP2;ratioP2;P2;SDS_P1;SDS_P2;PMS_P1;PMS_P2;Temp;Humidity;BMP_temperature;BMP_pressure;BME280_temperature;BME280_humidity;BME280_pressure;Samples;Min_cycle;Max_cycle;Signal;HPM_P1;HPM_P2
2022/03/01 00:02:03;;;;;;;16.50;8.07;;;;;;;;;;4939540;28;20110;-61
2022/03/01 00:04:28;;;;;;;14.45;6.93;;;;;;;;;;4911475;28;20043;-61
2022/03/01 00:06:56;;;;;;;16.67;6.88;;;;;;;;;;4954271;28;20502;-60
2022/03/01 00:09:22;;;;;;;16.80;6.88;;;;;;;;;;4940019;28;20055;-61
2022/03/01 00:11:49;;;;;;;14.82;6.47;;;;;;;;;;4939784;28;20105;-60
2022/03/01 00:14:17;;;;;;;11.32;5.95;;;;;;;;;;4954733;28;20039;-61
2022/03/01 00:16:45;;;;;;;12.48;6.43;;;;;;;;;;4938843;28;20122;-61
2022/03/01 00:19:10;;;;;;;10.45;6.55;;;;;;;;;;4919829;28;20041;-61
2022/03/01 00:21:38;;;;;;;13.55;6.78;;;;;;;;;;4936309;28;20065;-61
2022/03/01 00:24:04;;;;;;;15.10;6.85;;;;;;;;;;4946086;28;20027;-61
2022/03/01 00:26:32;;;;;;;18.30;7.65;;;;;;;;;;4935258;28;20338;-61
2022/03/01 00:29:00;;;;;;;17.05;6.72;;;;;;;;;;4912363;28;20069;-61
2022/03/01 00:31:33;;;;;;;11.18;6.45;;;;;;;;;;4930122;28;20034;-61
2022/03/01 00:34:01;;;;;;;15.75;6.32;;;;;;;;;;4923826;28;20047;-62
2022/03/01 00:36:29;;;;;;;15.88;6.95;;;;;;;;;;4926295;28;20083;-62
2022/03/01 00:38:59;;;;;;;16.73;7.13;;;;;;;;;;4960749;28;20042;-62
2022/03/01 00:41:27;;;;;;;22.42;7.43;;;;;;;;;;4956794;28;20035;-62
2022/03/01 00:43:52;;;;;;;14.90;7.00;;;;;;;;;;4961497;28;20077;-62
2022/03/01 00:46:17;;;;;;;15.43;6.78;;;;;;;;;;4960153;28;20034;-62
2022/03/01 00:48:45;;;;;;;15.25;5.97;;;;;;;;;;4945983;28;20044;-62
2022/03/01 00:51:11;;;;;;;15.77;6.88;;;;;;;;;;4961434;28;20046;-62
2022/03/01 00:53:37;;;;;;;10.32;5.85;;;;;;;;;;4942798;28;20156;-62
2022/03/01 00:56:04;;;;;;;15.85;6.22;;;;;;;;;;4944827;28;20622;-61
2022/03/01 00:58:29;;;;;;;16.60;6.88;;;;;;;;;;4939236;28;20038;-62
2022/03/01 01:00:55;;;;;;;14.35;6.78;;;;;;;;;;4960800;28;20027;-61
2022/03/01 01:03:23;;;;;;;12.00;5.70;;;;;;;;;;4957084;28;20042;-61
2022/03/01 01:05:51;;;;;;;16.90;6.20;;;;;;;;;;4958949;28;20066;-61
2022/03/01 01:08:19;;;;;;;20.23;6.38;;;;;;;;;;4944339;28;20105;-61
2022/03/01 01:10:45;;;;;;;15.48;7.07;;;;;;;;;;4955970;28;22217;-61
2022/03/01 01:13:12;;;;;;;13.80;6.28;;;;;;;;;;4955799;28;20564;-61
2022/03/01 01:15:40;;;;;;;14.45;6.88;;;;;;;;;;4940791;28;20030;-61
2022/03/01 01:18:06;;;;;;;17.48;7.40;;;;;;;;;;4941872;28;20061;-61
2022/03/01 01:20:41;;;;;;;16.15;7.32;;;;;;;;;;4940841;28;20123;-61
2022/03/01 01:23:10;;;;;;;14.48;6.07;;;;;;;;;;4959207;28;20103;-61
2022/03/01 01:25:38;;;;;;;15.73;6.90;;;;;;;;;;4945024;28;20069;-61
2022/03/01 01:28:08;;;;;;;16.15;6.95;;;;;;;;;;4957608;28;20042;-61
2022/03/01 01:30:34;;;;;;;13.02;7.38;;;;;;;;;;4945399;28;21195;-62
2022/03/01 01:33:00;;;;;;;14.88;6.22;;;;;;;;;;4930251;28;20069;-60
2022/03/01 01:35:28;;;;;;;12.32;6.20;;;;;;;;;;4958697;28;20194;-61
2022/03/01 01:37:59;;;;;;;16.63;6.88;;;;;;;;;;4958374;28;20077;-61
2022/03/01 01:40:30;;;;;;;15.25;7.03;;;;;;;;;;4958358;28;20042;-61
2022/03/01 01:43:01;;;;;;;17.27;6.95;;;;;;;;;;4959225;28;20129;-61
2022/03/01 01:45:30;;;;;;;12.70;6.50;;;;;;;;;;4958095;28;20730;-61
2022/03/01 01:47:57;;;;;;;16.40;7.18;;;;;;;;;;4931147;28;20035;-61
2022/03/01 01:50:25;;;;;;;15.48;6.60;;;;;;;;;;4949505;28;20037;-60
2022/03/01 01:52:53;;;;;;;13.95;6.47;;;;;;;;;;4960176;28;20041;-61
2022/03/01 01:55:22;;;;;;;13.65;6.50;;;;;;;;;;4958930;28;20030;-61
2022/03/01 01:57:48;;;;;;;11.93;4.82;;;;;;;;;;4959638;28;20510;-61
2022/03/01 02:00:14;;;;;;;14.00;6.78;;;;;;;;;;4959522;28;20042;-60
2022/03/01 02:02:40;;;;;;;14.20;6.50;;;;;;;;;;4928211;28;20035;-60
2022/03/01 02:05:09;;;;;;;15.05;7.40;;;;;;;;;;4959778;28;20118;-59
2022/03/01 02:07:37;;;;;;;12.20;5.75;;;;;;;;;;4927390;28;20058;-60
2022/03/01 02:10:04;;;;;;;12.02;6.45;;;;;;;;;;4959241;28;20042;-60
2022/03/01 02:12:36;;;;;;;12.13;6.55;;;;;;;;;;4946429;28;20116;-60
2022/03/01 02:15:04;;;;;;;12.70;6.60;;;;;;;;;;4946658;28;20045;-60
2022/03/01 02:17:34;;;;;;;18.30;7.63;;;;;;;;;;4959393;28;20030;-60
2022/03/01 02:20:02;;;;;;;15.85;6.38;;;;;;;;;;4948280;28;22040;-61
2022/03/01 02:22:33;;;;;;;14.32;6.47;;;;;;;;;;4947375;28;20031;-61
2022/03/01 02:25:01;;;;;;;13.32;6.22;;;;;;;;;;4958243;28;20050;-61
2022/03/01 02:27:29;;;;;;;11.90;6.00;;;;;;;;;;4945276;28;20049;-60
2022/03/01 02:30:00;;;;;;;15.48;6.78;;;;;;;;;;4957854;28;20619;-58
2022/03/01 02:32:28;;;;;;;12.43;6.20;;;;;;;;;;4957976;28;20053;-61
2022/03/01 02:34:56;;;;;;;16.83;6.20;;;;;;;;;;4961290;28;20053;-59
2022/03/01 02:37:24;;;;;;;13.18;5.78;;;;;;;;;;4951504;28;20031;-60
2022/03/01 02:39:50;;;;;;;13.27;6.47;;;;;;;;;;4940376;28;20058;-59
2022/03/01 02:42:18;;;;;;;11.68;6.28;;;;;;;;;;4939610;28;20047;-59
2022/03/01 02:44:44;;;;;;;16.77;7.35;;;;;;;;;;4939670;28;20038;-63
2022/03/01 02:47:09;;;;;;;16.85;6.88;;;;;;;;;;4911419;28;20039;-59
2022/03/01 02:49:38;;;;;;;14.25;5.85;;;;;;;;;;4927799;28;20062;-59
2022/03/01 02:52:04;;;;;;;10.77;6.15;;;;;;;;;;4928554;28;20093;-59
2022/03/01 02:54:34;;;;;;;13.80;7.28;;;;;;;;;;4928153;28;20026;-59
2022/03/01 02:57:01;;;;;;;14.73;6.25;;;;;;;;;;4930060;28;20710;-59
2022/03/01 02:59:27;;;;;;;13.10;6.05;;;;;;;;;;4943546;28;20066;-59
2022/03/01 03:01:55;;;;;;;14.98;6.63;;;;;;;;;;4931171;28;20043;-61
2022/03/01 03:04:23;;;;;;;15.98;6.75;;;;;;;;;;4930132;28;20156;-59
2022/03/01 03:06:49;;;;;;;16.38;6.90;;;;;;;;;;4939721;28;20046;-61
2022/03/01 03:09:15;;;;;;;16.42;7.63;;;;;;;;;;4925430;28;20039;-61
2022/03/01 03:11:40;;;;;;;11.75;5.82;;;;;;;;;;4911819;28;20673;-60
2022/03/01 03:14:05;;;;;;;18.40;7.10;;;;;;;;;;4913157;28;20039;-60
2022/03/01 03:16:33;;;;;;;20.35;8.30;;;;;;;;;;4938350;28;20085;-60
2022/03/01 03:18:59;;;;;;;14.95;6.25;;;;;;;;;;4913998;28;21106;-59
2022/03/01 03:21:29;;;;;;;13.85;6.68;;;;;;;;;;4930770;28;20050;-61
2022/03/01 03:23:55;;;;;;;16.00;6.85;;;;;;;;;;4922908;28;20047;-60
2022/03/01 03:26:23;;;;;;;17.10;6.43;;;;;;;;;;4940284;28;20130;-59
2022/03/01 03:28:53;;;;;;;15.65;5.55;;;;;;;;;;4941991;28;20031;-60
2022/03/01 03:31:21;;;;;;;13.30;6.90;;;;;;;;;;4945423;28;20462;-60
2022/03/01 03:33:49;;;;;;;18.48;7.35;;;;;;;;;;4924975;28;20039;-60
2022/03/01 03:36:19;;;;;;;15.20;5.90;;;;;;;;;;4912421;28;20043;-60
2022/03/01 03:38:49;;;;;;;18.67;6.90;;;;;;;;;;4956876;28;20489;-60
2022/03/01 03:41:17;;;;;;;14.20;6.85;;;;;;;;;;4962063;28;20085;-60
2022/03/01 03:43:45;;;;;;;14.82;6.53;;;;;;;;;;4944086;28;20035;-60
2022/03/01 03:46:13;;;;;;;12.75;6.93;;;;;;;;;;4951842;28;20049;-60
2022/03/01 03:48:39;;;;;;;14.95;6.15;;;;;;;;;;4933822;28;20038;-60
2022/03/01 03:51:04;;;;;;;12.02;6.57;;;;;;;;;;4932207;28;20153;-60
2022/03/01 03:53:30;;;;;;;15.52;6.47;;;;;;;;;;4949147;28;20384;-60
2022/03/01 03:55:55;;;;;;;13.35;7.03;;;;;;;;;;4953512;28;20073;-60
2022/03/01 03:58:21;;;;;;;13.27;6.53;;;;;;;;;;4947676;28;20027;-60
2022/03/01 04:00:49;;;;;;;14.98;6.68;;;;;;;;;;4940498;28;20042;-60
2022/03/01 04:03:17;;;;;;;11.55;7.70;;;;;;;;;;4955212;28;20089;-60
2022/03/01 04:05:50;;;;;;;16.75;6.88;;;;;;;;;;4933097;28;20100;-60
2022/03/01 04:08:18;;;;;;;17.35;7.50;;;;;;;;;;4959236;28;20049;-60
2022/03/01 04:10:51;;;;;;;13.18;6.40;;;;;;;;;;4959086;28;20548;-60
2022/03/01 04:13:20;;;;;;;17.45;7.20;;;;;;;;;;4961684;28;20552;-60
2022/03/01 04:15:45;;;;;;;13.90;6.60;;;;;;;;;;4960336;28;21975;-60
2022/03/01 04:18:13;;;;;;;14.30;6.85;;;;;;;;;;4960513;28;20090;-60
2022/03/01 04:20:41;;;;;;;14.57;6.72;;;;;;;;;;4961913;28;20034;-60
2022/03/01 04:23:10;;;;;;;16.40;6.75;;;;;;;;;;4961327;28;20049;-60
2022/03/01 04:25:38;;;;;;;13.82;7.57;;;;;;;;;;4956471;28;20113;-59
2022/03/01 04:28:06;;;;;;;13.25;6.07;;;;;;;;;;4927282;28;20599;-59
2022/03/01 04:30:39;;;;;;;13.95;6.78;;;;;;;;;;4947688;28;20049;-59
2022/03/01 04:33:09;;;;;;;18.23;7.70;;;;;;;;;;4949287;28;20045;-60
2022/03/01 04:35:39;;;;;;;16.55;7.32;;;;;;;;;;4960228;28;20125;-60
2022/03/01 04:38:07;;;;;;;15.45;6.65;;;;;;;;;;4947424;28;20537;-60
2022/03/01 04:40:35;;;;;;;15.68;7.10;;;;;;;;;;4959299;28;20804;-61
2022/03/01 04:43:08;;;;;;;13.98;7.00;;;;;;;;;;4947621;28;20026;-59
2022/03/01 04:45:36;;;;;;;15.85;6.82;;;;;;;;;;4960624;28;20585;-61
2022/03/01 04:48:02;;;;;;;12.88;6.18;;;;;;;;;;4961229;28;20142;-59
2022/03/01 04:50:28;;;;;;;17.50;7.35;;;;;;;;;;4924928;28;20041;-60
2022/03/01 04:52:56;;;;;;;17.67;6.97;;;;;;;;;;4948905;28;20114;-61
2022/03/01 04:55:27;;;;;;;16.75;7.15;;;;;;;;;;4954531;28;20437;-61
2022/03/01 04:57:52;;;;;;;16.85;7.28;;;;;;;;;;4941596;28;20121;-63
2022/03/01 05:00:17;;;;;;;12.55;7.10;;;;;;;;;;4960303;28;20085;-60
2022/03/01 05:02:47;;;;;;;14.57;7.00;;;;;;;;;;4934252;28;20042;-60
2022/03/01 05:05:17;;;;;;;18.15;7.30;;;;;;;;;;4959756;28;20045;-59
2022/03/01 05:07:46;;;;;;;18.92;7.53;;;;;;;;;;4960011;28;20081;-59
2022/03/01 05:10:12;;;;;;;15.60;7.22;;;;;;;;;;4941465;28;20029;-60
2022/03/01 05:13:03;;;;;;;16.45;6.22;;;;;;;;;;4957698;28;20390;-60
2022/03/01 05:15:31;;;;;;;12.80;6.65;;;;;;;;;;4946971;28;20034;-60
2022/03/01 05:17:58;;;;;;;13.95;6.85;;;;;;;;;;4944928;28;20042;-60
2022/03/01 05:20:25;;;;;;;14.90;7.15;;;;;;;;;;4950686;28;20742;-59
2022/03/01 05:22:54;;;;;;;23.13;7.35;;;;;;;;;;4945829;28;20434;-60
2022/03/01 05:25:21;;;;;;;18.23;6.90;;;;;;;;;;4937099;28;20040;-59
2022/03/01 05:27:47;;;;;;;17.35;7.55;;;;;;;;;;4960101;28;21870;-61
2022/03/01 05:30:15;;;;;;;19.95;7.43;;;;;;;;;;4958896;28;22809;-61
2022/03/01 05:32:46;;;;;;;13.82;6.85;;;;;;;;;;4958687;28;20035;-59
2022/03/01 05:35:17;;;;;;;15.23;6.93;;;;;;;;;;4959429;28;20540;-61
2022/03/01 05:37:43;;;;;;;19.20;7.97;;;;;;;;;;4949424;28;20648;-60
2022/03/01 05:40:12;;;;;;;19.60;7.95;;;;;;;;;;4938161;28;20031;-61
2022/03/01 05:42:40;;;;;;;16.02;7.78;;;;;;;;;;4940156;28;20093;-61
2022/03/01 05:45:08;;;;;;;14.30;6.97;;;;;;;;;;4938995;28;20043;-60
2022/03/01 05:47:36;;;;;;;16.23;7.95;;;;;;;;;;4938463;28;20043;-60
2022/03/01 05:50:04;;;;;;;15.02;7.65;;;;;;;;;;4925440;28;20495;-61
2022/03/01 05:52:30;;;;;;;16.67;7.28;;;;;;;;;;4940501;28;20034;-61
2022/03/01 05:54:58;;;;;;;16.20;6.97;;;;;;;;;;4926991;28;20077;-61
2022/03/01 05:57:29;;;;;;;13.80;6.75;;;;;;;;;;4923460;28;20677;-61
2022/03/01 05:59:57;;;;;;;18.10;7.57;;;;;;;;;;4939595;28;20029;-61
2022/03/01 06:02:29;;;;;;;18.40;7.82;;;;;;;;;;4941242;28;20066;-61
2022/03/01 06:04:54;;;;;;;29.52;9.85;;;;;;;;;;4923278;28;20050;-60
2022/03/01 06:07:27;;;;;;;19.98;7.93;;;;;;;;;;4940612;28;20038;-60
2022/03/01 06:09:53;;;;;;;18.23;7.90;;;;;;;;;;4938447;28;20113;-60
2022/03/01 06:12:18;;;;;;;16.33;7.45;;;;;;;;;;4927044;28;20996;-60
2022/03/01 06:14:48;;;;;;;15.18;7.85;;;;;;;;;;4928464;28;20103;-60
2022/03/01 06:17:16;;;;;;;14.07;6.68;;;;;;;;;;4940790;28;21931;-61
2022/03/01 06:19:41;;;;;;;14.57;7.47;;;;;;;;;;4912646;28;20513;-61
2022/03/01 06:22:13;;;;;;;17.00;7.97;;;;;;;;;;4939185;28;20082;-61
2022/03/01 06:24:41;;;;;;;22.98;9.20;;;;;;;;;;4933026;28;20079;-60
2022/03/01 06:27:10;;;;;;;21.98;8.73;;;;;;;;;;4943497;28;20035;-60
2022/03/01 06:29:36;;;;;;;18.02;8.18;;;;;;;;;;4945861;28;20035;-60
2022/03/01 06:32:02;;;;;;;18.70;8.20;;;;;;;;;;4944381;28;20043;-61
2022/03/01 06:34:30;;;;;;;21.88;7.68;;;;;;;;;;4931802;28;20059;-61
2022/03/01 06:36:58;;;;;;;19.67;8.07;;;;;;;;;;4943315;28;20086;-61
2022/03/01 06:39:23;;;;;;;18.45;8.02;;;;;;;;;;4930085;28;20047;-61
2022/03/01 06:41:50;;;;;;;14.98;7.70;;;;;;;;;;4942552;28;20041;-60
2022/03/01 06:44:25;;;;;;;17.67;7.88;;;;;;;;;;4946018;28;20031;-62
2022/03/01 06:46:51;;;;;;;16.52;7.55;;;;;;;;;;4944800;28;20030;-61
2022/03/01 06:49:21;;;;;;;17.10;8.18;;;;;;;;;;4943144;28;20102;-60
2022/03/01 06:51:46;;;;;;;14.88;7.35;;;;;;;;;;4943108;28;20070;-60
2022/03/01 06:54:14;;;;;;;22.30;8.77;;;;;;;;;;4942402;28;20150;-61
2022/03/01 06:56:42;;;;;;;19.48;8.25;;;;;;;;;;4917937;28;20027;-61
2022/03/01 06:59:09;;;;;;;21.33;7.95;;;;;;;;;;4943337;28;20094;-61
2022/03/01 07:01:38;;;;;;;18.33;8.15;;;;;;;;;;4924262;28;20154;-60
2022/03/01 07:04:04;;;;;;;22.60;7.63;;;;;;;;;;4899658;28;20039;-61
2022/03/01 07:06:32;;;;;;;15.93;7.55;;;;;;;;;;4941338;28;20050;-61
2022/03/01 07:09:00;;;;;;;21.98;8.45;;;;;;;;;;4929891;28;20537;-61
2022/03/01 07:11:25;;;;;;;15.18;7.18;;;;;;;;;;4925584;28;20067;-61
2022/03/01 07:13:51;;;;;;;16.80;7.68;;;;;;;;;;4927478;28;20042;-61
2022/03/01 07:16:17;;;;;;;19.52;8.57;;;;;;;;;;4937247;28;20043;-61
2022/03/01 07:18:43;;;;;;;15.45;8.00;;;;;;;;;;4917335;28;20042;-61
2022/03/01 07:21:15;;;;;;;23.67;8.25;;;;;;;;;;4932019;28;20598;-61
2022/03/01 07:23:41;;;;;;;19.63;8.32;;;;;;;;;;4944784;28;20038;-61
2022/03/01 07:26:07;;;;;;;18.73;8.45;;;;;;;;;;4940451;28;20114;-61
2022/03/01 07:28:35;;;;;;;17.63;8.52;;;;;;;;;;4939220;28;20581;-62
2022/03/01 07:31:00;;;;;;;18.55;8.27;;;;;;;;;;4937789;28;20050;-61
2022/03/01 07:33:29;;;;;;;15.68;7.55;;;;;;;;;;4926089;28;20034;-62
2022/03/01 07:36:00;;;;;;;15.65;7.43;;;;;;;;;;4926351;28;20097;-63
2022/03/01 07:38:27;;;;;;;18.70;7.95;;;;;;;;;;4953950;28;20461;-60
2022/03/01 07:40:58;;;;;;;15.77;7.85;;;;;;;;;;4959385;28;20049;-62
2022/03/01 07:43:26;;;;;;;19.02;8.48;;;;;;;;;;4929355;28;20051;-61
2022/03/01 07:45:56;;;;;;;20.92;8.32;;;;;;;;;;4959136;28;20035;-61
2022/03/01 07:48:22;;;;;;;18.42;8.00;;;;;;;;;;4950904;28;20105;-62
2022/03/01 07:50:50;;;;;;;17.65;7.70;;;;;;;;;;4945875;28;20057;-61
2022/03/01 07:53:17;;;;;;;17.38;8.68;;;;;;;;;;4941964;28;20038;-61
2022/03/01 07:55:42;;;;;;;20.08;8.45;;;;;;;;;;4946568;28;20075;-61
2022/03/01 07:58:12;;;;;;;16.50;7.63;;;;;;;;;;4959060;28;20417;-61
2022/03/01 08:00:38;;;;;;;17.88;8.77;;;;;;;;;;4949801;28;20078;-63
2022/03/01 08:03:06;;;;;;;16.08;8.32;;;;;;;;;;4959333;28;20489;-61
2022/03/01 08:05:34;;;;;;;22.38;8.80;;;;;;;;;;4928929;28;20117;-62
2022/03/01 08:08:08;;;;;;;13.32;7.82;;;;;;;;;;4960196;28;20054;-61
2022/03/01 08:10:35;;;;;;;16.35;7.20;;;;;;;;;;4952846;28;20044;-61
2022/03/01 08:13:03;;;;;;;13.85;7.55;;;;;;;;;;4944823;28;20789;-61
2022/03/01 08:15:32;;;;;;;21.85;7.97;;;;;;;;;;4940602;28;20610;-61
2022/03/01 08:17:59;;;;;;;20.08;8.18;;;;;;;;;;4924006;28;20035;-60
2022/03/01 08:20:28;;;;;;;17.45;7.72;;;;;;;;;;4941982;28;20051;-61
2022/03/01 08:22:56;;;;;;;14.45;7.38;;;;;;;;;;4958260;28;20042;-60
2022/03/01 08:25:25;;;;;;;18.30;7.95;;;;;;;;;;4944846;28;20058;-60
2022/03/01 08:27:50;;;;;;;13.82;7.57;;;;;;;;;;4952641;28;20049;-61
2022/03/01 08:30:23;;;;;;;17.35;8.02;;;;;;;;;;4941058;28;20096;-61
2022/03/01 08:32:49;;;;;;;15.15;7.65;;;;;;;;;;4941828;28;20855;-60
2022/03/01 08:35:15;;;;;;;18.65;8.70;;;;;;;;;;4939109;28;20038;-60
2022/03/01 08:37:42;;;;;;;13.23;7.38;;;;;;;;;;4942435;28;20177;-61
2022/03/01 08:40:13;;;;;;;17.85;8.35;;;;;;;;;;4958858;28;20146;-61
2022/03/01 08:42:42;;;;;;;23.63;10.43;;;;;;;;;;4957621;28;20042;-61
2022/03/01 08:45:07;;;;;;;17.40;8.48;;;;;;;;;;4948390;28;20042;-60
2022/03/01 08:47:38;;;;;;;16.77;8.90;;;;;;;;;;4952615;28;20655;-61
2022/03/01 08:50:07;;;;;;;18.85;8.00;;;;;;;;;;4955420;28;20038;-61
2022/03/01 08:52:35;;;;;;;15.35;8.20;;;;;;;;;;4943696;28;20077;-61
2022/03/01 08:55:02;;;;;;;20.15;8.57;;;;;;;;;;4931085;28;20634;-61
2022/03/01 08:57:28;;;;;;;14.25;7.65;;;;;;;;;;4955303;28;20065;-60
2022/03/01 08:59:58;;;;;;;18.55;8.82;;;;;;;;;;4929704;28;20049;-61
2022/03/01 09:02:23;;;;;;;19.25;8.32;;;;;;;;;;4959739;28;20370;-61
2022/03/01 09:04:49;;;;;;;16.73;8.00;;;;;;;;;;4943770;28;20038;-62
2022/03/01 09:07:19;;;;;;;16.45;8.00;;;;;;;;;;4957967;28;20410;-62
2022/03/01 09:09:49;;;;;;;15.10;7.82;;;;;;;;;;4953409;28;20088;-61
2022/03/01 09:12:17;;;;;;;15.80;7.80;;;;;;;;;;4957846;28;21125;-61
2022/03/01 09:14:43;;;;;;;16.38;8.25;;;;;;;;;;4948903;28;20035;-61
2022/03/01 09:17:08;;;;;;;14.18;7.25;;;;;;;;;;4945863;28;20096;-61
2022/03/01 09:19:36;;;;;;;13.63;7.78;;;;;;;;;;4959097;28;20034;-61
2022/03/01 09:22:09;;;;;;;15.48;7.28;;;;;;;;;;4958032;28;20045;-62
2022/03/01 09:24:35;;;;;;;14.52;7.45;;;;;;;;;;4956993;28;20078;-61
2022/03/01 09:27:02;;;;;;;13.23;7.18;;;;;;;;;;4945405;28;20927;-60
2022/03/01 09:29:30;;;;;;;17.05;8.23;;;;;;;;;;4940638;28;20118;-61
2022/03/01 09:31:59;;;;;;;15.38;7.18;;;;;;;;;;4939689;28;22058;-60
2022/03/01 09:34:27;;;;;;;13.95;7.13;;;;;;;;;;4961094;28;20402;-61
2022/03/01 09:36:53;;;;;;;16.33;7.97;;;;;;;;;;4955187;28;20026;-61
2022/03/01 09:39:21;;;;;;;15.85;8.05;;;;;;;;;;4941715;28;20221;-60
2022/03/01 09:41:50;;;;;;;14.13;7.40;;;;;;;;;;4938489;28;20045;-60
2022/03/01 09:44:18;;;;;;;15.88;8.52;;;;;;;;;;4940801;28;20042;-60
2022/03/01 09:46:43;;;;;;;14.23;7.95;;;;;;;;;;4922670;28;20035;-61
2022/03/01 09:49:11;;;;;;;13.65;7.43;;;;;;;;;;4929986;28;20041;-61
2022/03/01 09:51:39;;;;;;;17.38;7.97;;;;;;;;;;4910166;28;20046;-61
2022/03/01 09:54:07;;;;;;;20.23;7.80;;;;;;;;;;4924993;28;20039;-61
2022/03/01 09:56:39;;;;;;;17.15;8.57;;;;;;;;;;4926387;28;20500;-61
2022/03/01 09:59:05;;;;;;;16.27;8.05;;;;;;;;;;4936762;28;20038;-61
2022/03/01 10:01:33;;;;;;;20.50;8.95;;;;;;;;;;4928787;28;20069;-60
2022/03/01 10:04:10;;;;;;;15.32;7.88;;;;;;;;;;4940065;28;20039;-61
2022/03/01 10:06:47;;;;;;;16.52;8.13;;;;;;;;;;4939472;28;20236;-62
2022/03/01 10:09:14;;;;;;;14.13;7.30;;;;;;;;;;4941286;28;20035;-62
2022/03/01 10:11:47;;;;;;;12.75;7.80;;;;;;;;;;4935028;28;20627;-62
2022/03/01 10:14:25;;;;;;;16.23;7.70;;;;;;;;;;4924389;28;20046;-61
2022/03/01 10:16:53;;;;;;;16.55;8.35;;;;;;;;;;4912176;28;20076;-60
2022/03/01 10:19:21;;;;;;;14.48;8.13;;;;;;;;;;4940852;28;20039;-60
2022/03/01 10:21:57;;;;;;;12.93;8.23;;;;;;;;;;4929020;28;20039;-61
2022/03/01 10:24:23;;;;;;;16.17;7.95;;;;;;;;;;4940547;28;20043;-62
2022/03/01 10:26:49;;;;;;;12.98;7.57;;;;;;;;;;4924708;28;20101;-60
2022/03/01 10:29:17;;;;;;;12.55;7.78;;;;;;;;;;4925611;28;20093;-61
2022/03/01 10:31:49;;;;;;;20.23;8.55;;;;;;;;;;4938140;28;20894;-61
2022/03/01 10:34:17;;;;;;;20.48;8.07;;;;;;;;;;4937925;28;20104;-60
2022/03/01 10:36:48;;;;;;;16.73;8.13;;;;;;;;;;4937214;28;21136;-61
2022/03/01 10:39:14;;;;;;;13.73;7.38;;;;;;;;;;4923668;28;20118;-60
2022/03/01 10:41:41;;;;;;;19.35;8.27;;;;;;;;;;4937303;28;20539;-60
2022/03/01 10:44:07;;;;;;;17.98;8.20;;;;;;;;;;4939283;28;20626;-60
2022/03/01 10:46:41;;;;;;;17.52;7.82;;;;;;;;;;4937817;28;20070;-60
2022/03/01 10:49:11;;;;;;;16.17;7.97;;;;;;;;;;4924274;28;20122;-60
2022/03/01 10:52:03;;;;;;;15.40;8.30;;;;;;;;;;4937234;28;20213;-63
2022/03/01 10:54:30;;;;;;;14.13;7.70;;;;;;;;;;4932058;28;20137;-61
2022/03/01 10:56:58;;;;;;;15.60;8.30;;;;;;;;;;4937225;28;20066;-60
2022/03/01 10:59:25;;;;;;;15.13;8.00;;;;;;;;;;4922987;28;20031;-61
2022/03/01 11:01:58;;;;;;;15.75;8.38;;;;;;;;;;4939767;28;20042;-61
2022/03/01 11:04:25;;;;;;;11.80;8.07;;;;;;;;;;4939953;28;20026;-61
2022/03/01 11:06:52;;;;;;;15.60;8.43;;;;;;;;;;4939356;28;20675;-61
2022/03/01 11:09:17;;;;;;;16.05;9.00;;;;;;;;;;4939935;28;20157;-61
2022/03/01 11:11:44;;;;;;;16.00;8.38;;;;;;;;;;4928320;28;21054;-61
2022/03/01 11:14:15;;;;;;;16.35;9.00;;;;;;;;;;4939175;28;21954;-61
2022/03/01 11:16:53;;;;;;;15.75;8.23;;;;;;;;;;4924578;28;20035;-61
2022/03/01 11:19:38;;;;;;;17.98;7.88;;;;;;;;;;4941858;28;20039;-61
2022/03/01 11:22:07;;;;;;;13.20;7.93;;;;;;;;;;4937914;28;20080;-61
2022/03/01 11:24:35;;;;;;;17.48;9.02;;;;;;;;;;4940533;28;20131;-61
2022/03/01 11:27:09;;;;;;;18.98;8.25;;;;;;;;;;4906413;28;20043;-61
2022/03/01 11:29:40;;;;;;;17.95;7.70;;;;;;;;;;4928996;28;20070;-62
2022/03/01 11:32:17;;;;;;;15.52;7.97;;;;;;;;;;4926550;28;20046;-61
2022/03/01 11:34:44;;;;;;;16.52;8.73;;;;;;;;;;4942731;28;20166;-62
2022/03/01 11:37:24;;;;;;;14.60;8.13;;;;;;;;;;4933777;28;20442;-60
2022/03/01 11:40:04;;;;;;;16.17;8.95;;;;;;;;;;4930376;28;20149;-61
2022/03/01 11:42:35;;;;;;;14.48;8.70;;;;;;;;;;4959441;28;20534;-61
2022/03/01 11:45:12;;;;;;;19.05;8.98;;;;;;;;;;4961853;28;20253;-60
2022/03/01 11:47:42;;;;;;;18.38;8.45;;;;;;;;;;4962301;28;20538;-60
2022/03/01 11:50:16;;;;;;;17.83;9.45;;;;;;;;;;4962352;28;20947;-60
2022/03/01 11:52:55;;;;;;;20.23;9.18;;;;;;;;;;4960185;28;20153;-61
2022/03/01 11:55:21;;;;;;;16.80;8.63;;;;;;;;;;4931732;28;20093;-60
2022/03/01 11:57:49;;;;;;;22.08;10.43;;;;;;;;;;4960539;28;20038;-62
2022/03/01 12:00:15;;;;;;;19.30;9.40;;;;;;;;;;4957108;28;20085;-62
2022/03/01 12:02:47;;;;;;;16.08;9.18;;;;;;;;;;4960237;28;20121;-60
2022/03/01 12:05:20;;;;;;;16.35;8.57;;;;;;;;;;4959278;28;20082;-61
2022/03/01 12:07:49;;;;;;;18.98;9.27;;;;;;;;;;4945823;28;20137;-60
2022/03/01 12:10:21;;;;;;;18.20;8.82;;;;;;;;;;4945431;28;20049;-61
2022/03/01 12:12:52;;;;;;;18.65;10.02;;;;;;;;;;4958696;28;20045;-61
2022/03/01 12:15:28;;;;;;;15.48;9.65;;;;;;;;;;4946498;28;20070;-60
2022/03/01 12:17:57;;;;;;;21.77;10.23;;;;;;;;;;4958406;28;20030;-61
2022/03/01 12:20:25;;;;;;;21.35;9.35;;;;;;;;;;4958105;28;20023;-61
2022/03/01 12:22:59;;;;;;;20.40;9.90;;;;;;;;;;4959364;28;20118;-61
2022/03/01 12:25:25;;;;;;;18.10;9.88;;;;;;;;;;4957689;28;20042;-60
2022/03/01 12:27:54;;;;;;;24.15;9.02;;;;;;;;;;4946619;28;20357;-61
2022/03/01 12:30:22;;;;;;;16.92;9.10;;;;;;;;;;4959154;28;20069;-60
2022/03/01 12:32:49;;;;;;;18.67;9.45;;;;;;;;;;4959656;28;20180;-60
2022/03/01 12:35:16;;;;;;;19.00;9.32;;;;;;;;;;4939532;28;20030;-61
2022/03/01 12:37:44;;;;;;;18.92;8.35;;;;;;;;;;4958992;28;20061;-61
2022/03/01 12:40:10;;;;;;;23.63;9.00;;;;;;;;;;4947095;28;20129;-62
2022/03/01 12:42:38;;;;;;;26.70;9.48;;;;;;;;;;4946622;28;20050;-60
2022/03/01 12:45:06;;;;;;;18.17;9.02;;;;;;;;;;4931402;28;20046;-61
2022/03/01 12:47:34;;;;;;;15.73;8.38;;;;;;;;;;4958226;28;20031;-59
2022/03/01 12:50:02;;;;;;;17.17;9.45;;;;;;;;;;4953492;28;20098;-61
2022/03/01 12:52:27;;;;;;;17.95;8.95;;;;;;;;;;4941030;28;20069;-61
2022/03/01 12:54:53;;;;;;;15.15;8.38;;;;;;;;;;4945025;28;20126;-60
2022/03/01 12:57:20;;;;;;;18.83;8.70;;;;;;;;;;4927724;28;20161;-61
2022/03/01 12:59:48;;;;;;;20.73;9.27;;;;;;;;;;4930514;28;20167;-60
2022/03/01 13:02:15;;;;;;;17.27;8.75;;;;;;;;;;4941755;28;20049;-61
2022/03/01 13:04:49;;;;;;;14.10;7.93;;;;;;;;;;4958258;28;20046;-61
2022/03/01 13:07:17;;;;;;;20.38;9.02;;;;;;;;;;4945889;28;20031;-61
2022/03/01 13:09:48;;;;;;;18.42;8.98;;;;;;;;;;4959160;28;20031;-61
2022/03/01 13:12:20;;;;;;;18.00;9.00;;;;;;;;;;4946645;28;20046;-61
2022/03/01 13:14:52;;;;;;;18.65;8.68;;;;;;;;;;4954663;28;20715;-61
2022/03/01 13:17:18;;;;;;;15.52;8.25;;;;;;;;;;4946295;28;20030;-61
2022/03/01 13:19:46;;;;;;;15.65;9.10;;;;;;;;;;4959725;28;20077;-61
2022/03/01 13:22:11;;;;;;;15.35;8.48;;;;;;;;;;4958513;28;20697;-59
2022/03/01 13:24:43;;;;;;;16.50;8.98;;;;;;;;;;4946509;28;20101;-59
2022/03/01 13:27:13;;;;;;;17.83;8.93;;;;;;;;;;4939372;28;20043;-60
2022/03/01 13:29:41;;;;;;;19.00;9.20;;;;;;;;;;4955943;28;20406;-60
2022/03/01 13:32:08;;;;;;;18.52;9.77;;;;;;;;;;4958372;28;20039;-60
2022/03/01 13:34:36;;;;;;;17.15;8.35;;;;;;;;;;4941767;28;20121;-60
2022/03/01 13:37:09;;;;;;;22.02;9.95;;;;;;;;;;4955489;28;20038;-61
2022/03/01 13:39:38;;;;;;;19.60;8.68;;;;;;;;;;4940053;28;20034;-61
2022/03/01 13:42:04;;;;;;;20.95;10.00;;;;;;;;;;4919157;28;20035;-61
2022/03/01 13:44:35;;;;;;;15.80;9.35;;;;;;;;;;4935698;28;20173;-61
2022/03/01 13:47:09;;;;;;;18.00;9.10;;;;;;;;;;4940040;28;20605;-61
2022/03/01 13:49:36;;;;;;;16.85;8.75;;;;;;;;;;4939552;28;20038;-60
2022/03/01 13:52:09;;;;;;;16.02;9.35;;;;;;;;;;4939720;28;20047;-61
2022/03/01 13:54:35;;;;;;;21.42;10.90;;;;;;;;;;4940049;28;20053;-60
2022/03/01 13:57:03;;;;;;;20.50;10.90;;;;;;;;;;4938584;28;20651;-61
2022/03/01 13:59:34;;;;;;;17.83;10.52;;;;;;;;;;4936005;28;20042;-59
2022/03/01 14:02:00;;;;;;;17.55;10.13;;;;;;;;;;4921649;28;20047;-60
2022/03/01 14:04:32;;;;;;;20.50;10.77;;;;;;;;;;4911940;28;20137;-60
2022/03/01 14:07:00;;;;;;;21.02;11.50;;;;;;;;;;4929020;28;20049;-59
2022/03/01 14:09:28;;;;;;;21.52;10.00;;;;;;;;;;4918107;28;20043;-60
2022/03/01 14:11:59;;;;;;;22.00;10.90;;;;;;;;;;4938686;28;20101;-60
2022/03/01 14:14:27;;;;;;;23.80;11.65;;;;;;;;;;4938087;28;20030;-60
2022/03/01 14:16:55;;;;;;;19.83;10.93;;;;;;;;;;4925878;28;20038;-60
2022/03/01 14:19:23;;;;;;;20.80;10.65;;;;;;;;;;4922842;28;20027;-60
2022/03/01 14:21:51;;;;;;;21.95;11.75;;;;;;;;;;4937357;28;20047;-60
2022/03/01 14:24:17;;;;;;;22.45;11.27;;;;;;;;;;4928528;28;20078;-60
2022/03/01 14:26:42;;;;;;;21.55;11.60;;;;;;;;;;4918572;28;20039;-60
2022/03/01 14:29:09;;;;;;;18.77;10.10;;;;;;;;;;4938786;28;20506;-60
2022/03/01 14:31:36;;;;;;;22.42;11.38;;;;;;;;;;4933419;28;20039;-60
2022/03/01 14:34:05;;;;;;;23.13;11.48;;;;;;;;;;4934633;28;20117;-60
2022/03/01 14:36:30;;;;;;;23.00;11.13;;;;;;;;;;4938079;28;20499;-61